sensor_id;sensor_type;location;lat;lon;timestamp;temperature;humidity
25933;DHT22;13731;51.166;4.474;2023-06-22T00:00:27;20.80;1.00
25933;DHT22;13731;51.166;4.474;2023-06-22T00:02:53;20.80;1.00
25933;DHT22;13731;51.166;4.474;2023-06-22T00:05:19;20.70;1.00
25933;DHT22;13731;51.166;4.474;2023-06-22T00:07:44;20.50;1.00
25933;DHT22;13731;51.166;4.474;2023-06-22T00:10:10;20.50;1.00
25933;DHT22;13731;51.166;4.474;2023-06-22T00:12:36;20.60;1.00
25933;DHT22;13731;51.166;4.474;2023-06-22T00:15:02;20.80;99.90
25933;DHT22;13731;51.166;4.474;2023-06-22T00:17:27;20.70;99.90
25933;DHT22;13731;51.166;4.474;2023-06-22T00:19:53;20.50;1.00
25933;DHT22;13731;51.166;4.474;2023-06-22T00:22:21;20.50;1.00
25933;DHT22;13731;51.166;4.474;2023-06-22T00:24:54;20.40;1.00
25933;DHT22;13731;51.166;4.474;2023-06-22T00:27:20;20.20;1.00
25933;DHT22;13731;51.166;4.474;2023-06-22T00:29:46;20.10;1.00
25933;DHT22;13731;51.166;4.474;2023-06-22T00:32:11;20.20;1.00
25933;DHT22;13731;51.166;4.474;2023-06-22T00:34:37;20.30;1.00
25933;DHT22;13731;51.166;4.474;2023-06-22T00:37:03;20.20;1.00
25933;DHT22;13731;51.166;4.474;2023-06-22T00:39:29;20.10;99.90
25933;DHT22;13731;51.166;4.474;2023-06-22T00:41:55;20.00;99.90
25933;DHT22;13731;51.166;4.474;2023-06-22T00:44:20;19.90;99.90
25933;DHT22;13731;51.166;4.474;2023-06-22T00:46:46;19.80;1.00
25933;DHT22;13731;51.166;4.474;2023-06-22T00:49:12;19.80;1.00
25933;DHT22;13731;51.166;4.474;2023-06-22T00:51:38;19.80;1.00
25933;DHT22;13731;51.166;4.474;2023-06-22T00:54:04;20.00;99.90
25933;DHT22;13731;51.166;4.474;2023-06-22T00:56:31;20.00;99.90
25933;DHT22;13731;51.166;4.474;2023-06-22T00:58:58;19.80;1.00
25933;DHT22;13731;51.166;4.474;2023-06-22T01:01:24;19.70;1.00
25933;DHT22;13731;51.166;4.474;2023-06-22T01:03:50;19.70;1.00
25933;DHT22;13731;51.166;4.474;2023-06-22T01:06:22;19.70;1.00
25933;DHT22;13731;51.166;4.474;2023-06-22T01:08:57;19.70;1.00
25933;DHT22;13731;51.166;4.474;2023-06-22T01:11:27;19.60;1.00
25933;DHT22;13731;51.166;4.474;2023-06-22T01:14:01;19.60;56.90
25933;DHT22;13731;51.166;4.474;2023-06-22T01:16:29;19.60;1.00
25933;DHT22;13731;51.166;4.474;2023-06-22T01:18:56;19.70;1.00
25933;DHT22;13731;51.166;4.474;2023-06-22T01:21:23;19.80;1.00
25933;DHT22;13731;51.166;4.474;2023-06-22T01:26:22;19.60;1.00
25933;DHT22;13731;51.166;4.474;2023-06-22T01:28:54;19.50;1.00
25933;DHT22;13731;51.166;4.474;2023-06-22T01:31:23;19.50;9.30
25933;DHT22;13731;51.166;4.474;2023-06-22T01:33:59;19.50;1.00
25933;DHT22;13731;51.166;4.474;2023-06-22T01:36:26;19.40;1.00
25933;DHT22;13731;51.166;4.474;2023-06-22T01:38:53;19.40;1.00
25933;DHT22;13731;51.166;4.474;2023-06-22T01:41:19;19.30;1.00
25933;DHT22;13731;51.166;4.474;2023-06-22T01:43:46;19.20;95.50
25933;DHT22;13731;51.166;4.474;2023-06-22T01:46:13;19.30;67.20
25933;DHT22;13731;51.166;4.474;2023-06-22T01:48:39;19.40;1.00
25933;DHT22;13731;51.166;4.474;2023-06-22T01:51:06;19.40;1.00
25933;DHT22;13731;51.166;4.474;2023-06-22T01:53:32;19.50;1.00
25933;DHT22;13731;51.166;4.474;2023-06-22T01:55:57;19.50;1.00
25933;DHT22;13731;51.166;4.474;2023-06-22T01:58:25;19.40;1.00
25933;DHT22;13731;51.166;4.474;2023-06-22T02:01:10;19.60;1.00
25933;DHT22;13731;51.166;4.474;2023-06-22T02:03:38;19.70;1.00
25933;DHT22;13731;51.166;4.474;2023-06-22T02:06:06;19.60;1.00
25933;DHT22;13731;51.166;4.474;2023-06-22T02:08:55;19.60;1.00
25933;DHT22;13731;51.166;4.474;2023-06-22T02:11:19;19.60;1.00
25933;DHT22;13731;51.166;4.474;2023-06-22T02:13:46;19.50;1.00
25933;DHT22;13731;51.166;4.474;2023-06-22T02:16:13;19.40;1.00
25933;DHT22;13731;51.166;4.474;2023-06-22T02:18:45;19.30;23.10
25933;DHT22;13731;51.166;4.474;2023-06-22T02:21:11;19.30;43.10
25933;DHT22;13731;51.166;4.474;2023-06-22T02:23:37;19.30;1.00
25933;DHT22;13731;51.166;4.474;2023-06-22T02:26:03;19.30;99.90
25933;DHT22;13731;51.166;4.474;2023-06-22T02:28:30;19.30;99.90
25933;DHT22;13731;51.166;4.474;2023-06-22T02:30:56;19.30;99.90
25933;DHT22;13731;51.166;4.474;2023-06-22T02:33:21;19.20;99.90
25933;DHT22;13731;51.166;4.474;2023-06-22T02:35:47;19.20;99.90
25933;DHT22;13731;51.166;4.474;2023-06-22T02:38:14;19.10;99.90
25933;DHT22;13731;51.166;4.474;2023-06-22T02:40:40;19.00;99.90
25933;DHT22;13731;51.166;4.474;2023-06-22T02:43:05;19.00;1.00
25933;DHT22;13731;51.166;4.474;2023-06-22T02:45:31;18.90;1.00
25933;DHT22;13731;51.166;4.474;2023-06-22T02:47:57;19.00;1.00
25933;DHT22;13731;51.166;4.474;2023-06-22T02:50:23;19.20;99.90
25933;DHT22;13731;51.166;4.474;2023-06-22T02:52:50;19.10;99.90
25933;DHT22;13731;51.166;4.474;2023-06-22T02:55:16;19.10;99.90
25933;DHT22;13731;51.166;4.474;2023-06-22T02:57:47;19.10;99.90
25933;DHT22;13731;51.166;4.474;2023-06-22T03:00:18;19.00;99.90
25933;DHT22;13731;51.166;4.474;2023-06-22T03:02:46;19.00;99.90
25933;DHT22;13731;51.166;4.474;2023-06-22T03:05:13;19.00;99.90
25933;DHT22;13731;51.166;4.474;2023-06-22T03:07:42;18.80;99.90
25933;DHT22;13731;51.166;4.474;2023-06-22T03:10:09;18.70;1.00
25933;DHT22;13731;51.166;4.474;2023-06-22T03:12:38;18.70;1.00
25933;DHT22;13731;51.166;4.474;2023-06-22T03:15:05;18.70;1.00
25933;DHT22;13731;51.166;4.474;2023-06-22T03:17:31;18.70;1.00
25933;DHT22;13731;51.166;4.474;2023-06-22T03:19:57;18.60;1.00
25933;DHT22;13731;51.166;4.474;2023-06-22T03:22:22;18.50;1.00
25933;DHT22;13731;51.166;4.474;2023-06-22T03:24:48;18.60;88.80
25933;DHT22;13731;51.166;4.474;2023-06-22T03:27:14;18.60;1.00
25933;DHT22;13731;51.166;4.474;2023-06-22T03:29:40;18.60;1.00
25933;DHT22;13731;51.166;4.474;2023-06-22T03:32:06;18.50;1.00
25933;DHT22;13731;51.166;4.474;2023-06-22T03:34:32;18.50;99.90
25933;DHT22;13731;51.166;4.474;2023-06-22T03:37:04;18.50;76.90
25933;DHT22;13731;51.166;4.474;2023-06-22T03:39:31;18.60;1.00
25933;DHT22;13731;51.166;4.474;2023-06-22T03:41:57;18.70;1.00
25933;DHT22;13731;51.166;4.474;2023-06-22T03:44:23;18.70;1.00
25933;DHT22;13731;51.166;4.474;2023-06-22T03:46:49;18.60;1.00
25933;DHT22;13731;51.166;4.474;2023-06-22T03:49:18;18.50;99.90
25933;DHT22;13731;51.166;4.474;2023-06-22T03:51:44;18.60;99.90
25933;DHT22;13731;51.166;4.474;2023-06-22T03:54:09;18.70;1.00
25933;DHT22;13731;51.166;4.474;2023-06-22T03:56:35;18.70;1.00
25933;DHT22;13731;51.166;4.474;2023-06-22T03:59:01;18.70;1.00
25933;DHT22;13731;51.166;4.474;2023-06-22T04:01:26;18.70;1.00
25933;DHT22;13731;51.166;4.474;2023-06-22T04:03:52;18.70;1.00
25933;DHT22;13731;51.166;4.474;2023-06-22T04:06:18;18.60;99.90
25933;DHT22;13731;51.166;4.474;2023-06-22T04:08:45;18.60;99.90
25933;DHT22;13731;51.166;4.474;2023-06-22T04:11:13;18.60;99.90
25933;DHT22;13731;51.166;4.474;2023-06-22T04:13:39;18.50;99.90
25933;DHT22;13731;51.166;4.474;2023-06-22T04:16:04;18.50;1.00
25933;DHT22;13731;51.166;4.474;2023-06-22T04:18:30;18.60;1.00
25933;DHT22;13731;51.166;4.474;2023-06-22T04:20:57;18.70;99.90
25933;DHT22;13731;51.166;4.474;2023-06-22T04:23:23;18.60;99.90
25933;DHT22;13731;51.166;4.474;2023-06-22T04:25:49;18.80;99.90
25933;DHT22;13731;51.166;4.474;2023-06-22T04:28:15;18.80;99.90
25933;DHT22;13731;51.166;4.474;2023-06-22T04:30:41;18.90;96.70
25933;DHT22;13731;51.166;4.474;2023-06-22T04:33:15;18.80;99.90
25933;DHT22;13731;51.166;4.474;2023-06-22T04:35:41;18.80;99.90
25933;DHT22;13731;51.166;4.474;2023-06-22T04:38:09;18.90;99.90
25933;DHT22;13731;51.166;4.474;2023-06-22T04:40:35;19.00;30.90
25933;DHT22;13731;51.166;4.474;2023-06-22T04:43:01;19.00;99.90
25933;DHT22;13731;51.166;4.474;2023-06-22T04:45:28;18.90;99.90
25933;DHT22;13731;51.166;4.474;2023-06-22T04:47:54;18.90;1.00
25933;DHT22;13731;51.166;4.474;2023-06-22T04:50:20;19.00;1.00
25933;DHT22;13731;51.166;4.474;2023-06-22T04:52:47;18.90;1.00
25933;DHT22;13731;51.166;4.474;2023-06-22T04:55:14;19.00;1.00
25933;DHT22;13731;51.166;4.474;2023-06-22T04:57:44;19.00;1.00
25933;DHT22;13731;51.166;4.474;2023-06-22T05:00:14;18.90;1.00
25933;DHT22;13731;51.166;4.474;2023-06-22T05:02:43;19.00;1.00
25933;DHT22;13731;51.166;4.474;2023-06-22T05:05:09;19.00;1.00
25933;DHT22;13731;51.166;4.474;2023-06-22T05:07:39;19.10;1.00
25933;DHT22;13731;51.166;4.474;2023-06-22T05:10:08;19.20;1.00
25933;DHT22;13731;51.166;4.474;2023-06-22T05:12:35;19.50;99.90
25933;DHT22;13731;51.166;4.474;2023-06-22T05:15:01;19.70;1.00
25933;DHT22;13731;51.166;4.474;2023-06-22T05:17:27;20.00;1.00
25933;DHT22;13731;51.166;4.474;2023-06-22T05:19:53;20.20;99.90
25933;DHT22;13731;51.166;4.474;2023-06-22T05:22:19;20.40;1.00
25933;DHT22;13731;51.166;4.474;2023-06-22T05:24:45;20.50;1.00
25933;DHT22;13731;51.166;4.474;2023-06-22T05:27:11;20.60;1.00
25933;DHT22;13731;51.166;4.474;2023-06-22T05:29:37;20.90;99.90
25933;DHT22;13731;51.166;4.474;2023-06-22T05:32:03;20.90;99.90
25933;DHT22;13731;51.166;4.474;2023-06-22T05:34:28;21.00;99.90
25933;DHT22;13731;51.166;4.474;2023-06-22T05:36:54;21.10;99.90
25933;DHT22;13731;51.166;4.474;2023-06-22T05:39:20;21.30;99.90
25933;DHT22;13731;51.166;4.474;2023-06-22T05:41:46;21.50;1.00
25933;DHT22;13731;51.166;4.474;2023-06-22T05:44:12;21.80;1.00
25933;DHT22;13731;51.166;4.474;2023-06-22T05:46:40;21.90;99.90
25933;DHT22;13731;51.166;4.474;2023-06-22T05:49:10;22.00;99.90
25933;DHT22;13731;51.166;4.474;2023-06-22T05:51:35;21.90;99.90
25933;DHT22;13731;51.166;4.474;2023-06-22T05:54:01;21.80;1.00
25933;DHT22;13731;51.166;4.474;2023-06-22T05:56:27;21.90;99.90
25933;DHT22;13731;51.166;4.474;2023-06-22T05:58:52;21.60;1.00
25933;DHT22;13731;51.166;4.474;2023-06-22T06:01:18;21.60;1.00
25933;DHT22;13731;51.166;4.474;2023-06-22T06:03:44;21.60;1.00
25933;DHT22;13731;51.166;4.474;2023-06-22T06:06:10;21.80;1.00
25933;DHT22;13731;51.166;4.474;2023-06-22T06:08:38;21.70;1.00
25933;DHT22;13731;51.166;4.474;2023-06-22T06:11:04;21.80;1.00
25933;DHT22;13731;51.166;4.474;2023-06-22T06:13:30;22.20;99.90
25933;DHT22;13731;51.166;4.474;2023-06-22T06:15:56;22.60;99.90
25933;DHT22;13731;51.166;4.474;2023-06-22T06:18:22;22.90;65.40
25933;DHT22;13731;51.166;4.474;2023-06-22T06:20:47;22.70;17.60
25933;DHT22;13731;51.166;4.474;2023-06-22T06:23:13;22.50;99.90
25933;DHT22;13731;51.166;4.474;2023-06-22T06:25:39;22.30;99.90
25933;DHT22;13731;51.166;4.474;2023-06-22T06:28:05;22.30;99.90
25933;DHT22;13731;51.166;4.474;2023-06-22T06:30:31;22.60;99.90
25933;DHT22;13731;51.166;4.474;2023-06-22T06:32:56;22.70;99.90
25933;DHT22;13731;51.166;4.474;2023-06-22T06:35:22;22.50;99.90
25933;DHT22;13731;51.166;4.474;2023-06-22T06:37:49;22.70;99.90
25933;DHT22;13731;51.166;4.474;2023-06-22T06:40:15;22.90;95.90
25933;DHT22;13731;51.166;4.474;2023-06-22T06:42:42;23.00;99.90
25933;DHT22;13731;51.166;4.474;2023-06-22T06:45:10;23.10;95.20
25933;DHT22;13731;51.166;4.474;2023-06-22T06:47:36;23.10;21.80
25933;DHT22;13731;51.166;4.474;2023-06-22T06:50:02;23.20;43.20
25933;DHT22;13731;51.166;4.474;2023-06-22T06:52:28;23.30;12.20
25933;DHT22;13731;51.166;4.474;2023-06-22T06:54:54;23.20;83.00
25933;DHT22;13731;51.166;4.474;2023-06-22T06:57:19;23.10;94.20
25933;DHT22;13731;51.166;4.474;2023-06-22T06:59:45;23.10;97.30
25933;DHT22;13731;51.166;4.474;2023-06-22T07:02:11;22.90;99.90
25933;DHT22;13731;51.166;4.474;2023-06-22T07:04:37;23.10;99.90
25933;DHT22;13731;51.166;4.474;2023-06-22T07:07:03;23.30;13.90
25933;DHT22;13731;51.166;4.474;2023-06-22T07:09:28;22.90;99.90
25933;DHT22;13731;51.166;4.474;2023-06-22T07:11:54;22.80;99.90
25933;DHT22;13731;51.166;4.474;2023-06-22T07:14:20;22.80;99.90
25933;DHT22;13731;51.166;4.474;2023-06-22T07:16:46;22.90;99.90
25933;DHT22;13731;51.166;4.474;2023-06-22T07:19:12;22.60;99.90
25933;DHT22;13731;51.166;4.474;2023-06-22T07:21:38;22.70;99.90
25933;DHT22;13731;51.166;4.474;2023-06-22T07:24:05;22.70;99.90
25933;DHT22;13731;51.166;4.474;2023-06-22T07:26:31;22.40;99.90
25933;DHT22;13731;51.166;4.474;2023-06-22T07:28:57;22.60;99.90
25933;DHT22;13731;51.166;4.474;2023-06-22T07:31:26;22.60;99.90
25933;DHT22;13731;51.166;4.474;2023-06-22T07:33:52;22.20;1.00
25933;DHT22;13731;51.166;4.474;2023-06-22T07:36:18;22.30;1.00
25933;DHT22;13731;51.166;4.474;2023-06-22T07:38:44;22.30;99.90
25933;DHT22;13731;51.166;4.474;2023-06-22T07:41:09;22.30;1.00
25933;DHT22;13731;51.166;4.474;2023-06-22T07:43:35;22.40;99.90
25933;DHT22;13731;51.166;4.474;2023-06-22T07:46:02;22.40;99.90
25933;DHT22;13731;51.166;4.474;2023-06-22T07:48:29;23.00;99.90
25933;DHT22;13731;51.166;4.474;2023-06-22T07:50:55;23.20;27.30
25933;DHT22;13731;51.166;4.474;2023-06-22T07:53:21;23.00;11.80
25933;DHT22;13731;51.166;4.474;2023-06-22T07:55:47;22.90;11.00
25933;DHT22;13731;51.166;4.474;2023-06-22T07:58:13;22.90;85.40
25933;DHT22;13731;51.166;4.474;2023-06-22T08:00:39;23.10;1.00
25933;DHT22;13731;51.166;4.474;2023-06-22T08:03:05;23.00;36.00
25933;DHT22;13731;51.166;4.474;2023-06-22T08:05:31;23.00;1.00
25933;DHT22;13731;51.166;4.474;2023-06-22T08:07:57;23.00;1.00
25933;DHT22;13731;51.166;4.474;2023-06-22T08:10:23;22.80;99.90
25933;DHT22;13731;51.166;4.474;2023-06-22T08:12:48;22.60;99.90
25933;DHT22;13731;51.166;4.474;2023-06-22T08:15:14;22.70;99.90
25933;DHT22;13731;51.166;4.474;2023-06-22T08:17:40;22.50;99.90
25933;DHT22;13731;51.166;4.474;2023-06-22T08:20:06;22.80;99.90
25933;DHT22;13731;51.166;4.474;2023-06-22T08:22:37;22.90;49.30
25933;DHT22;13731;51.166;4.474;2023-06-22T08:25:03;22.70;19.30
25933;DHT22;13731;51.166;4.474;2023-06-22T08:27:29;22.60;99.90
25933;DHT22;13731;51.166;4.474;2023-06-22T08:29:57;22.90;10.30
25933;DHT22;13731;51.166;4.474;2023-06-22T08:32:24;23.20;1.00
25933;DHT22;13731;51.166;4.474;2023-06-22T08:34:52;23.20;1.00
25933;DHT22;13731;51.166;4.474;2023-06-22T08:37:18;23.40;1.00
25933;DHT22;13731;51.166;4.474;2023-06-22T08:39:44;23.40;1.00
25933;DHT22;13731;51.166;4.474;2023-06-22T08:42:09;23.60;1.00
25933;DHT22;13731;51.166;4.474;2023-06-22T08:44:35;23.80;1.00
25933;DHT22;13731;51.166;4.474;2023-06-22T08:47:01;24.00;1.00
25933;DHT22;13731;51.166;4.474;2023-06-22T08:49:27;23.80;1.00
25933;DHT22;13731;51.166;4.474;2023-06-22T08:51:53;24.10;99.90
25933;DHT22;13731;51.166;4.474;2023-06-22T08:54:21;24.10;99.90
25933;DHT22;13731;51.166;4.474;2023-06-22T08:56:47;23.90;1.00
25933;DHT22;13731;51.166;4.474;2023-06-22T08:59:13;23.60;1.00
25933;DHT22;13731;51.166;4.474;2023-06-22T09:01:38;23.70;1.00
25933;DHT22;13731;51.166;4.474;2023-06-22T09:04:04;23.60;1.00
25933;DHT22;13731;51.166;4.474;2023-06-22T09:06:32;23.50;1.00
25933;DHT22;13731;51.166;4.474;2023-06-22T09:09:00;23.40;1.00
25933;DHT22;13731;51.166;4.474;2023-06-22T09:11:26;23.70;1.00
25933;DHT22;13731;51.166;4.474;2023-06-22T09:13:52;23.10;1.00
25933;DHT22;13731;51.166;4.474;2023-06-22T09:16:19;23.00;99.90
25933;DHT22;13731;51.166;4.474;2023-06-22T09:18:48;22.90;99.90
25933;DHT22;13731;51.166;4.474;2023-06-22T09:21:14;22.60;1.00
25933;DHT22;13731;51.166;4.474;2023-06-22T09:23:39;22.80;99.90
25933;DHT22;13731;51.166;4.474;2023-06-22T09:26:05;22.70;99.90
25933;DHT22;13731;51.166;4.474;2023-06-22T09:28:31;22.70;99.90
25933;DHT22;13731;51.166;4.474;2023-06-22T09:30:58;22.90;99.90
25933;DHT22;13731;51.166;4.474;2023-06-22T09:33:25;23.10;99.90
25933;DHT22;13731;51.166;4.474;2023-06-22T09:35:51;23.30;99.90
25933;DHT22;13731;51.166;4.474;2023-06-22T09:38:17;23.20;99.90
25933;DHT22;13731;51.166;4.474;2023-06-22T09:40:43;23.10;99.90
25933;DHT22;13731;51.166;4.474;2023-06-22T09:43:08;23.10;99.90
25933;DHT22;13731;51.166;4.474;2023-06-22T09:45:34;23.10;99.90
25933;DHT22;13731;51.166;4.474;2023-06-22T09:48:00;23.30;99.90
25933;DHT22;13731;51.166;4.474;2023-06-22T09:50:26;23.30;99.90
25933;DHT22;13731;51.166;4.474;2023-06-22T09:52:51;23.30;99.90
25933;DHT22;13731;51.166;4.474;2023-06-22T09:55:20;23.40;99.90
25933;DHT22;13731;51.166;4.474;2023-06-22T09:57:46;23.20;99.90
25933;DHT22;13731;51.166;4.474;2023-06-22T10:00:12;22.90;28.40
25933;DHT22;13731;51.166;4.474;2023-06-22T10:02:39;22.70;1.00
25933;DHT22;13731;51.166;4.474;2023-06-22T10:05:05;22.30;1.00
25933;DHT22;13731;51.166;4.474;2023-06-22T10:07:31;22.20;6.50
25933;DHT22;13731;51.166;4.474;2023-06-22T10:09:57;22.10;99.90
25933;DHT22;13731;51.166;4.474;2023-06-22T10:12:23;22.20;1.00
25933;DHT22;13731;51.166;4.474;2023-06-22T10:14:49;22.00;99.90
25933;DHT22;13731;51.166;4.474;2023-06-22T10:17:14;21.80;1.00
25933;DHT22;13731;51.166;4.474;2023-06-22T10:19:40;21.90;99.90
25933;DHT22;13731;51.166;4.474;2023-06-22T10:22:07;21.80;1.00
25933;DHT22;13731;51.166;4.474;2023-06-22T10:24:32;21.60;1.00
25933;DHT22;13731;51.166;4.474;2023-06-22T10:26:58;21.40;1.00
25933;DHT22;13731;51.166;4.474;2023-06-22T10:29:24;21.20;99.90
25933;DHT22;13731;51.166;4.474;2023-06-22T10:31:50;21.10;99.90
25933;DHT22;13731;51.166;4.474;2023-06-22T10:34:16;21.20;91.50
25933;DHT22;13731;51.166;4.474;2023-06-22T10:36:41;21.40;99.90
25933;DHT22;13731;51.166;4.474;2023-06-22T10:39:07;21.20;33.90
25933;DHT22;13731;51.166;4.474;2023-06-22T10:41:33;21.10;99.90
25933;DHT22;13731;51.166;4.474;2023-06-22T10:43:59;20.90;99.90
25933;DHT22;13731;51.166;4.474;2023-06-22T10:46:25;20.80;99.90
25933;DHT22;13731;51.166;4.474;2023-06-22T10:48:51;20.60;99.90
25933;DHT22;13731;51.166;4.474;2023-06-22T10:51:19;20.50;1.00
25933;DHT22;13731;51.166;4.474;2023-06-22T10:53:45;20.40;1.00
25933;DHT22;13731;51.166;4.474;2023-06-22T10:56:11;20.20;1.00
25933;DHT22;13731;51.166;4.474;2023-06-22T10:58:36;20.10;1.00
25933;DHT22;13731;51.166;4.474;2023-06-22T11:01:02;20.20;14.10
25933;DHT22;13731;51.166;4.474;2023-06-22T11:03:28;20.40;1.00
25933;DHT22;13731;51.166;4.474;2023-06-22T11:05:54;20.40;1.00
25933;DHT22;13731;51.166;4.474;2023-06-22T11:08:20;20.30;1.00
25933;DHT22;13731;51.166;4.474;2023-06-22T11:10:45;20.20;1.00
25933;DHT22;13731;51.166;4.474;2023-06-22T11:13:11;20.10;99.90
25933;DHT22;13731;51.166;4.474;2023-06-22T11:15:37;19.90;1.00
25933;DHT22;13731;51.166;4.474;2023-06-22T11:18:03;20.00;1.00
25933;DHT22;13731;51.166;4.474;2023-06-22T11:20:30;19.90;1.00
25933;DHT22;13731;51.166;4.474;2023-06-22T11:22:56;19.90;1.00
25933;DHT22;13731;51.166;4.474;2023-06-22T11:25:22;20.10;1.00
25933;DHT22;13731;51.166;4.474;2023-06-22T11:27:48;20.10;1.00
25933;DHT22;13731;51.166;4.474;2023-06-22T11:30:14;20.00;1.00
25933;DHT22;13731;51.166;4.474;2023-06-22T11:32:40;20.10;1.00
25933;DHT22;13731;51.166;4.474;2023-06-22T11:35:05;20.00;1.00
25933;DHT22;13731;51.166;4.474;2023-06-22T11:37:31;20.20;1.00
25933;DHT22;13731;51.166;4.474;2023-06-22T11:39:57;20.40;1.00
25933;DHT22;13731;51.166;4.474;2023-06-22T11:42:23;20.50;1.00
25933;DHT22;13731;51.166;4.474;2023-06-22T11:44:49;20.70;1.00
25933;DHT22;13731;51.166;4.474;2023-06-22T11:47:15;20.40;1.00
25933;DHT22;13731;51.166;4.474;2023-06-22T11:49:41;20.30;37.40
25933;DHT22;13731;51.166;4.474;2023-06-22T11:52:06;20.40;45.20
25933;DHT22;13731;51.166;4.474;2023-06-22T11:54:32;20.40;1.00
25933;DHT22;13731;51.166;4.474;2023-06-22T11:56:59;20.30;1.00
25933;DHT22;13731;51.166;4.474;2023-06-22T11:59:24;20.00;1.00
25933;DHT22;13731;51.166;4.474;2023-06-22T12:01:50;19.90;99.90
25933;DHT22;13731;51.166;4.474;2023-06-22T12:04:16;19.80;99.90
25933;DHT22;13731;51.166;4.474;2023-06-22T12:06:42;19.90;99.90
25933;DHT22;13731;51.166;4.474;2023-06-22T12:09:09;19.80;44.20
25933;DHT22;13731;51.166;4.474;2023-06-22T12:11:35;19.90;27.70
25933;DHT22;13731;51.166;4.474;2023-06-22T12:14:00;19.80;1.00
25933;DHT22;13731;51.166;4.474;2023-06-22T12:16:28;19.70;1.00
25933;DHT22;13731;51.166;4.474;2023-06-22T12:18:53;19.50;99.90
25933;DHT22;13731;51.166;4.474;2023-06-22T12:21:19;19.40;99.90
25933;DHT22;13731;51.166;4.474;2023-06-22T12:23:45;19.40;99.90
25933;DHT22;13731;51.166;4.474;2023-06-22T12:26:11;19.40;93.40
25933;DHT22;13731;51.166;4.474;2023-06-22T12:28:36;19.30;37.50
25933;DHT22;13731;51.166;4.474;2023-06-22T12:31:02;19.40;13.50
25933;DHT22;13731;51.166;4.474;2023-06-22T12:33:28;19.30;1.00
25933;DHT22;13731;51.166;4.474;2023-06-22T12:35:56;19.50;1.00
25933;DHT22;13731;51.166;4.474;2023-06-22T12:38:22;19.30;1.00
25933;DHT22;13731;51.166;4.474;2023-06-22T12:40:47;19.40;11.00
25933;DHT22;13731;51.166;4.474;2023-06-22T12:43:15;19.20;33.40
25933;DHT22;13731;51.166;4.474;2023-06-22T12:45:40;19.40;1.00
25933;DHT22;13731;51.166;4.474;2023-06-22T12:48:06;19.20;31.30
25933;DHT22;13731;51.166;4.474;2023-06-22T12:50:32;19.20;35.80
25933;DHT22;13731;51.166;4.474;2023-06-22T12:52:57;19.10;30.30
25933;DHT22;13731;51.166;4.474;2023-06-22T12:55:23;19.10;85.40
25933;DHT22;13731;51.166;4.474;2023-06-22T12:57:49;19.00;99.90
25933;DHT22;13731;51.166;4.474;2023-06-22T13:00:15;19.10;99.90
25933;DHT22;13731;51.166;4.474;2023-06-22T13:02:41;19.20;99.90
25933;DHT22;13731;51.166;4.474;2023-06-22T13:05:08;19.30;25.00
25933;DHT22;13731;51.166;4.474;2023-06-22T13:07:34;19.20;67.50
25933;DHT22;13731;51.166;4.474;2023-06-22T13:09:59;19.10;99.90
25933;DHT22;13731;51.166;4.474;2023-06-22T13:12:25;19.00;99.10
25933;DHT22;13731;51.166;4.474;2023-06-22T13:14:51;18.90;99.90
25933;DHT22;13731;51.166;4.474;2023-06-22T13:17:17;19.00;99.90
25933;DHT22;13731;51.166;4.474;2023-06-22T13:19:42;19.00;99.40
25933;DHT22;13731;51.166;4.474;2023-06-22T13:22:25;19.10;99.90
25933;DHT22;13731;51.166;4.474;2023-06-22T13:24:51;19.10;51.40
25933;DHT22;13731;51.166;4.474;2023-06-22T13:27:17;19.10;99.90
25933;DHT22;13731;51.166;4.474;2023-06-22T13:29:42;19.10;99.90
25933;DHT22;13731;51.166;4.474;2023-06-22T13:32:08;19.00;99.90
25933;DHT22;13731;51.166;4.474;2023-06-22T13:34:34;19.10;99.90
25933;DHT22;13731;51.166;4.474;2023-06-22T13:36:59;19.20;99.90
25933;DHT22;13731;51.166;4.474;2023-06-22T13:39:25;19.20;97.10
25933;DHT22;13731;51.166;4.474;2023-06-22T13:41:51;19.20;99.90
25933;DHT22;13731;51.166;4.474;2023-06-22T13:44:16;19.20;99.90
25933;DHT22;13731;51.166;4.474;2023-06-22T13:46:42;19.10;99.90
25933;DHT22;13731;51.166;4.474;2023-06-22T13:49:08;19.00;99.90
25933;DHT22;13731;51.166;4.474;2023-06-22T13:51:33;19.20;66.10
25933;DHT22;13731;51.166;4.474;2023-06-22T13:53:59;19.00;99.90
25933;DHT22;13731;51.166;4.474;2023-06-22T13:56:25;19.10;99.90
25933;DHT22;13731;51.166;4.474;2023-06-22T13:58:51;19.10;95.70
25933;DHT22;13731;51.166;4.474;2023-06-22T14:01:17;19.10;99.90
25933;DHT22;13731;51.166;4.474;2023-06-22T14:03:42;19.00;99.90
25933;DHT22;13731;51.166;4.474;2023-06-22T14:06:11;19.00;99.90
25933;DHT22;13731;51.166;4.474;2023-06-22T14:08:36;19.20;99.90
25933;DHT22;13731;51.166;4.474;2023-06-22T14:11:02;19.20;99.90
25933;DHT22;13731;51.166;4.474;2023-06-22T14:13:28;19.20;99.90
25933;DHT22;13731;51.166;4.474;2023-06-22T14:15:54;19.30;99.90
25933;DHT22;13731;51.166;4.474;2023-06-22T14:18:20;19.40;99.90
25933;DHT22;13731;51.166;4.474;2023-06-22T14:20:50;19.50;99.90
25933;DHT22;13731;51.166;4.474;2023-06-22T14:23:16;19.70;12.00
25933;DHT22;13731;51.166;4.474;2023-06-22T14:25:42;19.60;35.80
25933;DHT22;13731;51.166;4.474;2023-06-22T14:28:08;19.40;99.90
25933;DHT22;13731;51.166;4.474;2023-06-22T14:30:33;19.40;99.90
25933;DHT22;13731;51.166;4.474;2023-06-22T14:32:59;19.40;99.90
25933;DHT22;13731;51.166;4.474;2023-06-22T14:35:25;19.50;99.90
25933;DHT22;13731;51.166;4.474;2023-06-22T14:37:51;19.70;17.70
25933;DHT22;13731;51.166;4.474;2023-06-22T14:40:17;19.50;46.50
25933;DHT22;13731;51.166;4.474;2023-06-22T14:42:42;19.40;99.90
25933;DHT22;13731;51.166;4.474;2023-06-22T14:45:08;19.40;99.90
25933;DHT22;13731;51.166;4.474;2023-06-22T14:47:34;19.50;99.90
25933;DHT22;13731;51.166;4.474;2023-06-22T14:50:00;19.40;99.90
25933;DHT22;13731;51.166;4.474;2023-06-22T14:52:26;19.40;99.90
25933;DHT22;13731;51.166;4.474;2023-06-22T14:54:52;19.60;99.90
25933;DHT22;13731;51.166;4.474;2023-06-22T14:57:19;19.80;70.70
25933;DHT22;13731;51.166;4.474;2023-06-22T14:59:46;19.90;1.00
25933;DHT22;13731;51.166;4.474;2023-06-22T15:02:12;19.70;15.90
25933;DHT22;13731;51.166;4.474;2023-06-22T15:04:38;19.70;92.40
25933;DHT22;13731;51.166;4.474;2023-06-22T15:07:04;19.60;99.90
25933;DHT22;13731;51.166;4.474;2023-06-22T15:09:29;19.60;99.90
25933;DHT22;13731;51.166;4.474;2023-06-22T15:11:55;19.90;1.00
25933;DHT22;13731;51.166;4.474;2023-06-22T15:14:21;19.90;3.30
25933;DHT22;13731;51.166;4.474;2023-06-22T15:16:47;19.90;24.50
25933;DHT22;13731;51.166;4.474;2023-06-22T15:19:13;19.80;84.10
25933;DHT22;13731;51.166;4.474;2023-06-22T15:21:38;19.60;99.90
25933;DHT22;13731;51.166;4.474;2023-06-22T15:24:04;19.50;99.90
25933;DHT22;13731;51.166;4.474;2023-06-22T15:26:30;19.60;99.90
25933;DHT22;13731;51.166;4.474;2023-06-22T15:28:56;19.60;90.80
25933;DHT22;13731;51.166;4.474;2023-06-22T15:31:21;19.40;99.90
25933;DHT22;13731;51.166;4.474;2023-06-22T15:33:47;19.50;99.90